createdAt,value
2024-03-02T00:00:58.016Z,1.00
2024-03-02T00:03:26.470Z,1.00
2024-03-02T00:05:56.038Z,99.90
2024-03-02T00:08:27.558Z,99.90
2024-03-02T00:10:59.918Z,99.90
2024-03-02T00:13:28.497Z,99.90
2024-03-02T00:15:57.690Z,99.90
2024-03-02T00:18:28.355Z,99.90
2024-03-02T00:20:59.193Z,99.90
2024-03-02T00:23:32.027Z,99.90
2024-03-02T00:26:01.135Z,99.90
2024-03-02T00:28:31.444Z,99.90
2024-03-02T00:31:08.546Z,99.90
2024-03-02T00:33:38.423Z,99.90
2024-03-02T00:36:09.300Z,99.90
2024-03-02T00:38:46.479Z,1.00
2024-03-02T00:41:19.268Z,1.00
2024-03-02T00:43:51.791Z,99.90
2024-03-02T00:46:21.213Z,1.00
2024-03-02T00:48:59.213Z,99.90
2024-03-02T00:51:30.493Z,99.90
2024-03-02T00:54:02.071Z,99.90
2024-03-02T00:56:30.359Z,99.90
2024-03-02T00:58:58.905Z,99.90
2024-03-02T01:01:27.203Z,1.00
2024-03-02T01:03:55.901Z,1.00
2024-03-02T01:06:24.505Z,1.00
2024-03-02T01:08:54.183Z,1.00
2024-03-02T01:11:23.378Z,1.00
2024-03-02T01:13:53.091Z,1.00
2024-03-02T01:16:21.518Z,1.00
2024-03-02T01:18:50.051Z,1.00
2024-03-02T01:21:18.586Z,1.00
2024-03-02T01:23:46.868Z,1.00
2024-03-02T01:26:16.967Z,1.00
2024-03-02T01:28:45.114Z,1.00
2024-03-02T01:31:14.207Z,1.00
2024-03-02T01:33:42.688Z,1.00
2024-03-02T01:36:10.812Z,1.00
2024-03-02T01:38:38.936Z,1.00
2024-03-02T01:41:07.093Z,1.00
2024-03-02T01:43:39.446Z,1.00
2024-03-02T01:46:10.547Z,1.00
2024-03-02T01:48:38.808Z,1.00
2024-03-02T01:51:07.902Z,1.00
2024-03-02T01:53:36.613Z,1.00
2024-03-02T01:56:05.200Z,1.00
2024-03-02T01:58:33.409Z,1.00
2024-03-02T02:01:03.205Z,1.00
2024-03-02T02:03:31.626Z,1.00
2024-03-02T02:06:00.172Z,1.00
2024-03-02T02:08:28.297Z,1.00
2024-03-02T02:10:56.695Z,1.00
2024-03-02T02:13:25.352Z,1.00
2024-03-02T02:15:54.499Z,1.00
2024-03-02T02:18:24.437Z,1.00
2024-03-02T02:20:52.714Z,1.00
2024-03-02T02:23:22.185Z,1.00
2024-03-02T02:25:50.369Z,1.00
2024-03-02T02:28:18.616Z,1.00
2024-03-02T02:30:46.759Z,1.00
2024-03-02T02:33:15.116Z,1.00
2024-03-02T02:35:43.338Z,1.00
2024-03-02T02:38:11.501Z,1.00
2024-03-02T02:40:41.073Z,1.00
2024-03-02T02:43:09.270Z,1.00
2024-03-02T02:45:37.624Z,1.00
2024-03-02T02:48:07.105Z,1.00
2024-03-02T02:50:35.241Z,1.00
2024-03-02T02:53:03.411Z,1.00
2024-03-02T02:55:31.648Z,1.00
2024-03-02T02:58:01.340Z,1.00
2024-03-02T03:00:29.768Z,1.00
2024-03-02T03:02:58.061Z,1.00
2024-03-02T03:05:26.277Z,1.00
2024-03-02T03:07:54.555Z,1.00
2024-03-02T03:10:24.410Z,1.00
2024-03-02T03:12:53.008Z,1.00
2024-03-02T03:15:22.823Z,1.00
2024-03-02T03:17:52.074Z,1.00
2024-03-02T03:20:22.697Z,1.00
2024-03-02T03:22:51.117Z,1.00
2024-03-02T03:25:19.294Z,1.00
2024-03-02T03:27:47.594Z,1.00
2024-03-02T03:30:16.330Z,1.00
2024-03-02T03:32:46.227Z,1.00
2024-03-02T03:35:15.934Z,1.00
2024-03-02T03:37:44.097Z,1.00
2024-03-02T03:40:13.248Z,1.00
2024-03-02T03:42:41.761Z,1.00
2024-03-02T03:45:10.645Z,1.00
2024-03-02T03:47:38.878Z,1.00
2024-03-02T03:50:09.544Z,1.00
2024-03-02T03:52:37.807Z,1.00
2024-03-02T03:55:07.397Z,1.00
2024-03-02T03:57:36.102Z,1.00
2024-03-02T04:00:05.371Z,1.00
2024-03-02T04:02:33.662Z,1.00
2024-03-02T04:05:01.864Z,1.00
2024-03-02T04:07:31.414Z,1.00
2024-03-02T04:09:59.658Z,1.00
2024-03-02T04:12:27.880Z,1.00
2024-03-02T04:14:56.037Z,1.00
2024-03-02T04:17:24.129Z,1.00
2024-03-02T04:19:52.192Z,1.00
2024-03-02T04:22:25.132Z,1.00
2024-03-02T04:24:55.583Z,1.00
2024-03-02T04:27:23.837Z,1.00
2024-03-02T04:29:51.910Z,1.00
2024-03-02T04:32:20.900Z,1.00
2024-03-02T04:34:49.241Z,1.00
2024-03-02T04:37:17.366Z,1.00
2024-03-02T04:39:45.595Z,1.00
2024-03-02T04:42:15.350Z,1.00
2024-03-02T04:44:43.547Z,1.00
2024-03-02T04:47:11.706Z,1.00
2024-03-02T04:49:40.025Z,1.00
2024-03-02T04:52:08.357Z,1.00
2024-03-02T04:54:57.371Z,1.00
2024-03-02T04:57:25.982Z,1.00
2024-03-02T04:59:53.997Z,1.00
2024-03-02T05:02:22.167Z,1.00
2024-03-02T05:04:50.348Z,1.00
2024-03-02T05:07:18.572Z,1.00
2024-03-02T05:09:46.752Z,1.00
2024-03-02T05:12:36.349Z,1.00
2024-03-02T05:15:06.906Z,1.00
2024-03-02T05:17:35.136Z,1.00
2024-03-02T05:20:03.745Z,1.00
2024-03-02T05:22:31.837Z,1.00
2024-03-02T05:25:01.866Z,1.00
2024-03-02T05:27:30.091Z,1.00
2024-03-02T05:29:59.360Z,1.00
2024-03-02T05:32:28.990Z,1.00
2024-03-02T05:34:57.171Z,1.00
2024-03-02T05:37:25.438Z,1.00
2024-03-02T05:39:53.692Z,1.00
2024-03-02T05:42:21.937Z,1.00
2024-03-02T05:44:50.147Z,1.00
2024-03-02T05:47:18.636Z,1.00
2024-03-02T05:49:48.096Z,1.00
2024-03-02T05:52:16.290Z,1.00
2024-03-02T05:54:44.654Z,1.00
2024-03-02T05:57:33.106Z,1.00
2024-03-02T06:00:01.351Z,1.00
2024-03-02T06:02:29.595Z,1.00
2024-03-02T06:04:59.205Z,1.00
2024-03-02T06:07:27.228Z,1.00
2024-03-02T06:09:55.666Z,1.00
2024-03-02T06:12:24.085Z,1.00
2024-03-02T06:14:52.494Z,1.00
2024-03-02T06:17:21.028Z,1.00
2024-03-02T06:19:49.248Z,1.00
2024-03-02T06:22:20.276Z,1.00
2024-03-02T06:24:48.528Z,1.00
2024-03-02T06:27:16.665Z,1.00
2024-03-02T06:29:44.992Z,1.00
2024-03-02T06:32:13.133Z,1.00
2024-03-02T06:34:40.226Z,1.00
2024-03-02T06:37:08.430Z,1.00
2024-03-02T06:39:38.109Z,1.00
2024-03-02T06:42:06.880Z,1.00
2024-03-02T06:44:36.225Z,1.00
2024-03-02T06:47:05.392Z,1.00
2024-03-02T06:49:33.558Z,1.00
2024-03-02T06:52:01.715Z,1.00
2024-03-02T06:54:29.935Z,1.00
2024-03-02T06:56:59.468Z,1.00
2024-03-02T06:59:27.605Z,1.00
2024-03-02T07:01:55.759Z,1.00
2024-03-02T07:04:23.910Z,1.00
2024-03-02T07:06:52.217Z,1.00
2024-03-02T07:09:23.820Z,1.00
2024-03-02T07:11:52.489Z,1.00
2024-03-02T07:14:23.479Z,1.00
2024-03-02T07:16:51.692Z,1.00
2024-03-02T07:19:19.957Z,1.00
2024-03-02T07:21:48.310Z,1.00
2024-03-02T07:24:17.597Z,1.00
2024-03-02T07:29:16.801Z,1.00
2024-03-02T07:31:46.458Z,1.00
2024-03-02T07:34:14.633Z,1.00
2024-03-02T07:36:43.210Z,1.00
2024-03-02T07:39:11.873Z,1.00
2024-03-02T07:41:40.002Z,1.00
2024-03-02T07:44:08.500Z,1.00
2024-03-02T07:46:36.681Z,1.00
2024-03-02T07:49:06.452Z,99.90
2024-03-02T07:51:34.531Z,99.90
2024-03-02T07:54:02.652Z,99.90
2024-03-02T07:56:30.857Z,99.90
2024-03-02T07:59:02.102Z,99.90
2024-03-02T08:01:31.378Z,99.90
2024-03-02T08:03:59.854Z,99.90
2024-03-02T08:06:29.983Z,99.90
2024-03-02T08:08:59.001Z,99.90
2024-03-02T08:11:28.428Z,99.90
2024-03-02T08:13:56.771Z,99.90
2024-03-02T08:16:26.597Z,99.90
2024-03-02T08:18:55.105Z,99.90
2024-03-02T08:21:23.563Z,99.90
2024-03-02T08:23:53.353Z,99.90
2024-03-02T08:26:21.715Z,99.90
2024-03-02T08:28:49.890Z,99.90
2024-03-02T08:31:17.995Z,99.90
2024-03-02T08:33:46.169Z,99.90
2024-03-02T08:36:14.431Z,99.90
2024-03-02T08:38:42.717Z,99.90
2024-03-02T08:41:14.233Z,99.90
2024-03-02T08:43:43.761Z,99.90
2024-03-02T08:46:12.167Z,99.90
2024-03-02T08:48:40.364Z,99.90
2024-03-02T08:51:09.852Z,99.90
2024-03-02T08:53:38.712Z,99.90
2024-03-02T08:56:07.468Z,99.90
2024-03-02T08:58:37.162Z,99.90
2024-03-02T09:01:05.783Z,99.90
2024-03-02T09:03:34.988Z,99.90
2024-03-02T09:06:03.216Z,99.90
2024-03-02T09:08:31.416Z,99.90
2024-03-02T09:10:59.540Z,99.90
2024-03-02T09:13:27.687Z,99.90
2024-03-02T09:15:57.477Z,99.90
2024-03-02T09:18:25.763Z,99.90
2024-03-02T09:20:53.978Z,99.90
2024-03-02T09:23:22.797Z,99.90
2024-03-02T09:25:51.010Z,99.90
2024-03-02T09:28:19.545Z,99.90
2024-03-02T09:30:47.827Z,99.90
2024-03-02T09:33:17.960Z,99.90
2024-03-02T09:35:46.276Z,99.90
2024-03-02T09:38:14.930Z,99.90
2024-03-02T09:40:44.176Z,99.90
2024-03-02T09:43:12.701Z,99.90
2024-03-02T09:45:41.090Z,99.90
2024-03-02T09:48:10.105Z,99.90
2024-03-02T09:50:40.032Z,99.90
2024-03-02T09:53:10.047Z,99.90
2024-03-02T09:55:38.160Z,99.90
2024-03-02T09:58:06.525Z,99.90
2024-03-02T10:00:35.306Z,99.90
2024-03-02T10:03:03.706Z,99.90
2024-03-02T10:05:31.712Z,99.90
2024-03-02T10:08:05.045Z,99.90
2024-03-02T10:10:44.230Z,99.90
2024-03-02T10:13:13.924Z,99.90
2024-03-02T10:15:43.503Z,99.90
2024-03-02T10:18:13.473Z,99.90
2024-03-02T10:20:42.560Z,99.90
2024-03-02T10:23:17.363Z,99.90
2024-03-02T10:25:52.119Z,99.90
2024-03-02T10:28:26.248Z,99.90
2024-03-02T10:30:54.873Z,99.90
2024-03-02T10:33:23.200Z,99.90
2024-03-02T10:35:52.517Z,99.90
2024-03-02T10:38:22.276Z,99.90
2024-03-02T10:40:50.754Z,99.90
2024-03-02T10:43:21.150Z,99.90
2024-03-02T10:45:52.717Z,99.90
2024-03-02T10:48:22.654Z,99.90
2024-03-02T10:50:52.084Z,99.90
2024-03-02T10:53:21.605Z,99.90
2024-03-02T10:55:54.316Z,99.90
2024-03-02T10:58:22.914Z,99.90
2024-03-02T11:00:51.474Z,99.90
2024-03-02T11:03:20.422Z,99.90
2024-03-02T11:05:49.771Z,99.90
2024-03-02T11:08:22.391Z,99.90
2024-03-02T11:10:53.671Z,99.90
2024-03-02T11:13:27.083Z,99.90
2024-03-02T11:15:58.121Z,99.90
2024-03-02T11:18:27.101Z,99.90
2024-03-02T11:20:56.168Z,99.90
2024-03-02T11:23:34.868Z,99.90
2024-03-02T11:26:20.723Z,99.90
2024-03-02T11:28:49.540Z,99.90
2024-03-02T11:31:17.756Z,99.90
2024-03-02T11:33:46.006Z,99.90
2024-03-02T11:36:14.205Z,99.90
2024-03-02T11:38:46.671Z,99.90
2024-03-02T11:41:15.608Z,99.90
2024-03-02T11:43:46.715Z,99.90
2024-03-02T11:46:17.508Z,99.90
2024-03-02T11:48:45.615Z,89.70
2024-03-02T11:51:14.138Z,84.20
2024-03-02T11:53:45.126Z,81.20
2024-03-02T11:56:15.867Z,70.70
2024-03-02T11:58:44.827Z,66.30
2024-03-02T12:01:14.632Z,86.50
2024-03-02T12:03:43.183Z,71.90
2024-03-02T12:06:11.791Z,74.40
2024-03-02T12:08:40.804Z,75.70
2024-03-02T12:11:10.408Z,73.80
2024-03-02T12:13:38.524Z,91.40
2024-03-02T12:16:07.773Z,71.00
2024-03-02T12:18:37.140Z,72.70
2024-03-02T12:21:07.705Z,71.30
2024-03-02T12:23:36.553Z,82.50
2024-03-02T12:26:04.974Z,60.50
2024-03-02T12:28:35.986Z,62.00
2024-03-02T12:31:04.371Z,62.70
2024-03-02T12:33:32.788Z,58.10
2024-03-02T12:36:01.250Z,55.70
2024-03-02T12:38:30.631Z,58.60
2024-03-02T12:40:58.883Z,60.40
2024-03-02T12:43:31.519Z,57.80
2024-03-02T12:46:01.402Z,57.60
2024-03-02T12:48:29.951Z,56.20
2024-03-02T12:50:58.171Z,54.80
2024-03-02T12:53:26.403Z,58.70
2024-03-02T12:55:55.528Z,58.80
2024-03-02T12:58:25.213Z,58.80
2024-03-02T13:01:10.281Z,58.80
2024-03-02T13:03:39.853Z,58.20
2024-03-02T13:06:08.921Z,57.00
2024-03-02T13:08:37.335Z,58.20
2024-03-02T13:11:08.351Z,55.00
2024-03-02T13:13:36.782Z,62.20
2024-03-02T13:16:05.653Z,59.90
2024-03-02T13:18:36.017Z,61.10
2024-03-02T13:21:04.293Z,58.50
2024-03-02T13:23:32.841Z,60.70
2024-03-02T13:26:01.046Z,58.00
2024-03-02T13:28:29.394Z,59.20
2024-03-02T13:30:57.574Z,59.30
2024-03-02T13:33:25.869Z,58.30
2024-03-02T13:35:55.416Z,61.40
2024-03-02T13:38:23.734Z,59.40
2024-03-02T13:40:53.270Z,57.00
2024-03-02T13:43:21.552Z,56.40
2024-03-02T13:45:49.742Z,54.10
2024-03-02T13:48:17.898Z,53.70
2024-03-02T13:50:46.595Z,53.70
2024-03-02T13:53:16.033Z,52.00
2024-03-02T13:55:44.121Z,51.40
2024-03-02T13:58:13.151Z,51.90
2024-03-02T14:00:41.474Z,51.40
2024-03-02T14:03:09.740Z,52.90
2024-03-02T14:05:38.481Z,53.10
2024-03-02T14:08:06.994Z,53.50
2024-03-02T14:10:36.766Z,52.80
2024-03-02T14:13:05.136Z,52.30
2024-03-02T14:15:33.570Z,54.60
2024-03-02T14:18:01.790Z,55.50
2024-03-02T14:20:30.659Z,55.50
2024-03-02T14:23:00.305Z,54.80
2024-03-02T14:25:31.602Z,54.00
2024-03-02T14:28:25.843Z,55.60
2024-03-02T14:30:49.510Z,57.50
2024-03-02T14:33:17.893Z,56.10
2024-03-02T14:35:47.185Z,55.50
2024-03-02T14:38:16.542Z,56.50
2024-03-02T14:40:44.651Z,55.40
2024-03-02T14:43:14.277Z,57.10
2024-03-02T14:45:42.498Z,56.80
2024-03-02T14:48:10.654Z,56.80
2024-03-02T14:50:39.706Z,55.60
2024-03-02T14:53:08.380Z,55.20
2024-03-02T14:55:36.596Z,71.90
2024-03-02T14:58:04.984Z,56.20
2024-03-02T15:00:34.577Z,57.60
2024-03-02T15:03:02.857Z,57.90
2024-03-02T15:05:30.968Z,56.10
2024-03-02T15:08:00.494Z,54.20
2024-03-02T15:10:28.687Z,52.70
2024-03-02T15:12:56.892Z,52.10
2024-03-02T15:15:25.139Z,52.00
2024-03-02T15:17:54.710Z,50.80
2024-03-02T15:20:23.248Z,49.60
2024-03-02T15:22:51.501Z,47.90
2024-03-02T15:25:19.679Z,63.40
2024-03-02T15:27:47.886Z,46.50
2024-03-02T15:30:16.452Z,45.60
2024-03-02T15:32:44.594Z,41.40
2024-03-02T15:35:14.093Z,41.60
2024-03-02T15:37:42.192Z,41.00
2024-03-02T15:40:12.283Z,39.80
2024-03-02T15:42:40.813Z,39.50
2024-03-02T15:45:09.666Z,39.00
2024-03-02T15:47:38.165Z,36.10
2024-03-02T15:50:07.269Z,35.50
2024-03-02T15:52:36.801Z,36.80
2024-03-02T15:55:07.360Z,34.20
2024-03-02T15:57:36.427Z,33.70
2024-03-02T16:00:06.177Z,34.20
2024-03-02T16:02:34.371Z,33.70
2024-03-02T16:05:02.512Z,31.50
2024-03-02T16:07:30.715Z,32.40
2024-03-02T16:10:04.397Z,32.20
2024-03-02T16:12:32.594Z,31.60
2024-03-02T16:15:00.850Z,44.00
2024-03-02T16:17:28.918Z,29.20
2024-03-02T16:19:58.874Z,26.70
2024-03-02T16:22:27.031Z,26.70
2024-03-02T16:24:55.285Z,26.70
2024-03-02T16:27:25.734Z,25.90
2024-03-02T16:29:55.908Z,26.90
2024-03-02T16:32:24.064Z,26.90
2024-03-02T16:34:52.483Z,26.70
2024-03-02T16:37:21.553Z,26.40
2024-03-02T16:39:50.000Z,26.90
2024-03-02T16:42:21.050Z,26.30
2024-03-02T16:44:53.023Z,25.80
2024-03-02T16:47:21.196Z,26.20
2024-03-02T16:49:49.290Z,24.40
2024-03-02T16:52:18.132Z,24.00
2024-03-02T16:54:50.213Z,23.20
2024-03-02T16:57:19.132Z,23.40
2024-03-02T16:59:47.521Z,23.90
2024-03-02T17:02:17.162Z,23.20
2024-03-02T17:04:45.295Z,20.90
2024-03-02T17:07:13.670Z,20.90
2024-03-02T17:09:42.166Z,20.50
2024-03-02T17:12:10.578Z,22.00
2024-03-02T17:14:38.721Z,21.90
2024-03-02T17:17:06.978Z,23.20
2024-03-02T17:19:36.602Z,22.20
2024-03-02T17:22:04.968Z,23.20
2024-03-02T17:24:33.215Z,23.90
2024-03-02T17:27:01.365Z,23.70
2024-03-02T17:29:29.470Z,24.50
2024-03-02T17:31:57.982Z,25.10
2024-03-02T17:34:26.215Z,25.70
2024-03-02T17:36:55.780Z,25.80
2024-03-02T17:39:24.011Z,27.40
2024-03-02T17:41:52.376Z,27.70
2024-03-02T17:44:20.603Z,28.70
2024-03-02T17:46:48.753Z,29.30
2024-03-02T17:49:20.343Z,30.70
2024-03-02T17:51:49.020Z,32.70
2024-03-02T17:54:18.961Z,34.50
2024-03-02T17:56:47.114Z,35.30
2024-03-02T17:59:15.282Z,36.20
2024-03-02T18:01:43.444Z,37.50
2024-03-02T18:04:11.710Z,39.30
2024-03-02T18:06:39.839Z,40.10
2024-03-02T18:09:08.607Z,42.50
2024-03-02T18:11:38.237Z,45.60
2024-03-02T18:14:06.737Z,47.40
2024-03-02T18:16:35.216Z,49.70
2024-03-02T18:19:06.057Z,53.40
2024-03-02T18:21:35.145Z,57.80
2024-03-02T18:24:03.358Z,64.40
2024-03-02T18:26:34.140Z,73.60
2024-03-02T18:29:04.341Z,82.00
2024-03-02T18:31:32.772Z,89.10
2024-03-02T18:34:01.041Z,94.70
2024-03-02T18:36:29.269Z,98.00
2024-03-02T18:38:57.502Z,99.90
2024-03-02T18:41:25.981Z,99.90
2024-03-02T18:43:54.193Z,99.90
2024-03-02T18:46:23.828Z,99.90
2024-03-02T18:48:52.502Z,99.90
2024-03-02T18:51:23.188Z,99.90
2024-03-02T18:53:51.450Z,99.90
2024-03-02T18:56:19.940Z,99.90
2024-03-02T18:58:48.194Z,99.90
2024-03-02T19:01:17.332Z,99.90
2024-03-02T19:03:47.122Z,99.90
2024-03-02T19:06:18.571Z,99.90
2024-03-02T19:08:46.841Z,99.90
2024-03-02T19:11:16.134Z,99.90
2024-03-02T19:13:45.839Z,99.90
2024-03-02T19:16:14.377Z,99.90
2024-03-02T19:18:43.455Z,99.90
2024-03-02T19:21:13.119Z,99.90
2024-03-02T19:23:45.062Z,99.90
2024-03-02T19:26:19.775Z,99.90
2024-03-02T19:28:49.581Z,99.90
2024-03-02T19:31:18.039Z,99.90
2024-03-02T19:33:46.788Z,99.90
2024-03-02T19:36:16.383Z,99.90
2024-03-02T19:38:44.687Z,99.90
2024-03-02T19:41:12.899Z,99.90
2024-03-02T19:43:41.044Z,99.90
2024-03-02T19:46:09.398Z,99.90
2024-03-02T19:48:37.715Z,99.90
2024-03-02T19:51:06.151Z,99.90
2024-03-02T19:53:35.626Z,99.90
2024-03-02T19:56:03.778Z,99.90
2024-03-02T19:58:33.283Z,99.90
2024-03-02T20:01:01.511Z,99.90
2024-03-02T20:03:29.815Z,99.90
2024-03-02T20:05:57.989Z,99.90
2024-03-02T20:08:27.478Z,99.90
2024-03-02T20:10:57.251Z,99.90
2024-03-02T20:13:25.648Z,99.90
2024-03-02T20:15:53.917Z,99.90
2024-03-02T20:18:22.224Z,99.90
2024-03-02T20:20:50.393Z,99.90
2024-03-02T20:23:18.633Z,99.90
2024-03-02T20:25:46.780Z,99.90
2024-03-02T20:28:18.214Z,99.90
2024-03-02T20:30:46.557Z,99.90
2024-03-02T20:33:14.853Z,99.90
2024-03-02T20:35:43.120Z,99.90
2024-03-02T20:38:11.434Z,99.90
2024-03-02T20:40:39.699Z,99.90
2024-03-02T20:43:07.981Z,99.90
2024-03-02T20:45:37.681Z,99.90
2024-03-02T20:48:06.372Z,99.90
2024-03-02T20:50:34.726Z,99.90
2024-03-02T20:53:08.004Z,99.90
2024-03-02T20:55:37.372Z,99.90
2024-03-02T20:58:06.049Z,99.90
2024-03-02T21:00:34.346Z,99.90
2024-03-02T21:03:04.053Z,99.90
2024-03-02T21:05:32.454Z,99.90
2024-03-02T21:08:02.245Z,99.90
2024-03-02T21:10:30.422Z,99.90
2024-03-02T21:13:00.042Z,99.90
2024-03-02T21:15:28.375Z,99.90
2024-03-02T21:17:56.548Z,99.90
2024-03-02T21:20:26.402Z,99.90
2024-03-02T21:22:53.601Z,99.90
2024-03-02T21:25:22.012Z,99.90
2024-03-02T21:27:50.504Z,99.90
2024-03-02T21:30:19.720Z,99.90
2024-03-02T21:32:49.673Z,99.90
2024-03-02T21:35:18.032Z,99.90
2024-03-02T21:37:47.751Z,99.90
2024-03-02T21:40:17.739Z,99.90
2024-03-02T21:42:46.125Z,99.90
2024-03-02T21:45:15.390Z,99.90
2024-03-02T21:47:43.864Z,99.90
2024-03-02T21:50:12.975Z,99.90
2024-03-02T21:52:41.258Z,99.90
2024-03-02T21:55:12.032Z,99.90
2024-03-02T21:57:41.155Z,99.90
2024-03-02T22:00:10.878Z,99.90
2024-03-02T22:02:39.176Z,99.90
2024-03-02T22:05:08.315Z,99.90
2024-03-02T22:07:36.588Z,99.90
2024-03-02T22:10:05.919Z,99.90
2024-03-02T22:12:35.574Z,99.90
2024-03-02T22:15:04.149Z,99.90
2024-03-02T22:17:32.400Z,99.90
2024-03-02T22:20:00.772Z,99.90
2024-03-02T22:22:28.993Z,99.90
2024-03-02T22:24:57.253Z,99.90
2024-03-02T22:27:25.371Z,99.90
2024-03-02T22:29:54.984Z,99.90
2024-03-02T22:32:23.146Z,99.90
2024-03-02T22:34:51.271Z,99.90
2024-03-02T22:37:21.060Z,99.90
2024-03-02T22:39:49.328Z,99.90
2024-03-02T22:42:17.572Z,99.90
2024-03-02T22:44:45.711Z,99.90
2024-03-02T22:47:15.233Z,99.90
2024-03-02T22:49:43.401Z,99.90
2024-03-02T22:52:11.530Z,99.90
2024-03-02T22:54:39.729Z,99.90
2024-03-02T22:57:07.877Z,99.90
2024-03-02T22:59:36.004Z,99.90
2024-03-02T23:02:04.230Z,99.90
2024-03-02T23:04:34.760Z,99.90
2024-03-02T23:07:02.858Z,99.90
2024-03-02T23:09:30.936Z,99.90
2024-03-02T23:11:59.206Z,99.90
2024-03-02T23:14:27.416Z,99.90
2024-03-02T23:16:55.627Z,99.90
2024-03-02T23:19:24.130Z,99.90
2024-03-02T23:21:55.542Z,99.90
2024-03-02T23:24:23.832Z,99.90
2024-03-02T23:26:53.585Z,99.90
2024-03-02T23:29:22.008Z,99.90
2024-03-02T23:31:50.351Z,99.90
2024-03-02T23:34:18.752Z,99.90
2024-03-02T23:36:46.965Z,99.90
2024-03-02T23:39:37.523Z,99.90
2024-03-02T23:42:04.948Z,99.90
2024-03-02T23:44:33.075Z,99.90
2024-03-02T23:47:01.535Z,99.90
2024-03-02T23:49:29.610Z,99.90
2024-03-02T23:51:57.760Z,99.90
2024-03-02T23:54:27.417Z,99.90
2024-03-02T23:56:56.084Z,99.90
2024-03-02T23:59:24.325Z,99.90
